Terminal Aerodrome Forecast
Issued by NWS Blacksburg, VA

Current Version | Previous Version | Graphics & Text | Print | Product List | Glossary On
Versions: 1 2 3 4 5 6 7 8 9 10 11 12 13 14 15 16 17 18 19 20 21 22 23 24 25 26 27 28 29 30 31 32 33 34 35 36
883
FTUS41 KRNK 261412 AAA
TAFBLF
TAF AMD
KBLF 261412Z 2614/2712 25006KT 1SM TSRA BR SCT015 OVC040CB
      TEMPO 2614/2617 4SM -SHRA OVC015
     FM261800 VRB03KT P6SM VCTS BKN035CB OVC070
      TEMPO 2620/2624 4SM TSRA OVC025CB
     FM270100 20004KT 6SM -SHRA BKN015 OVC070=

USA.gov is the U.S. government's official web portal to all federal, state and local government web resources and services.